createdAt,value
2022-10-18T00:02:16.429Z,16.32
2022-10-18T00:04:43.057Z,16.33
2022-10-18T00:07:09.698Z,16.35
2022-10-18T00:09:36.394Z,16.36
2022-10-18T00:12:03.364Z,16.37
2022-10-18T00:14:30.125Z,16.34
2022-10-18T00:16:57.366Z,16.33
2022-10-18T00:19:26.024Z,16.36
2022-10-18T00:21:55.223Z,16.32
2022-10-18T00:24:21.867Z,16.32
2022-10-18T00:26:48.594Z,16.25
2022-10-18T00:29:16.145Z,16.23
2022-10-18T00:31:43.758Z,16.21
2022-10-18T00:34:13.034Z,16.14
2022-10-18T00:36:40.001Z,16.16
2022-10-18T00:39:07.567Z,16.18
2022-10-18T00:41:35.555Z,16.14
2022-10-18T00:44:13.209Z,16.12
2022-10-18T00:46:42.180Z,16.09
2022-10-18T00:49:22.200Z,15.97
2022-10-18T00:51:48.879Z,16.12
2022-10-18T00:54:16.858Z,16.14
2022-10-18T00:56:44.868Z,16.13
2022-10-18T00:59:14.097Z,16.11
2022-10-18T01:01:40.821Z,16.16
2022-10-18T01:04:07.665Z,16.13
2022-10-18T01:07:05.906Z,16.07
2022-10-18T01:10:01.644Z,15.94
2022-10-18T01:12:43.387Z,16.12
2022-10-18T01:15:29.747Z,15.99
2022-10-18T01:17:56.367Z,16.18
2022-10-18T01:20:58.585Z,16.05
2022-10-18T01:23:40.285Z,16.15
2022-10-18T01:26:28.621Z,16.18
2022-10-18T01:28:55.186Z,16.20
2022-10-18T01:31:24.083Z,16.18
2022-10-18T01:33:54.055Z,16.16
2022-10-18T01:36:34.971Z,16.04
2022-10-18T01:39:06.231Z,16.15
2022-10-18T01:41:34.589Z,16.18
2022-10-18T01:44:03.244Z,16.16
2022-10-18T01:46:30.269Z,16.16
2022-10-18T01:48:57.685Z,16.17
2022-10-18T01:51:26.102Z,16.16
2022-10-18T01:53:52.977Z,16.18
2022-10-18T01:56:40.721Z,16.02
2022-10-18T01:59:39.410Z,15.97
2022-10-18T02:02:24.905Z,15.99
2022-10-18T02:05:01.805Z,16.04
2022-10-18T02:07:55.360Z,16.01
2022-10-18T02:10:38.455Z,16.08
2022-10-18T02:13:05.300Z,16.12
2022-10-18T02:15:37.680Z,16.11
2022-10-18T02:18:08.627Z,16.08
2022-10-18T02:20:36.620Z,16.14
2022-10-18T02:23:04.695Z,16.17
2022-10-18T02:25:31.805Z,16.14
2022-10-18T02:27:58.559Z,16.15
2022-10-18T02:30:31.317Z,16.03
2022-10-18T02:33:18.897Z,15.96
2022-10-18T02:35:47.612Z,16.15
2022-10-18T02:38:15.510Z,16.11
2022-10-18T02:40:42.196Z,16.15
2022-10-18T02:43:08.812Z,16.11
2022-10-18T02:45:35.475Z,16.10
2022-10-18T02:48:02.152Z,16.13
2022-10-18T02:50:28.786Z,16.09
2022-10-18T02:52:55.483Z,16.11
2022-10-18T02:55:22.160Z,16.09
2022-10-18T02:57:48.957Z,16.16
2022-10-18T03:00:15.810Z,16.11
2022-10-18T03:02:42.450Z,16.14
2022-10-18T03:05:09.136Z,16.15
2022-10-18T03:07:35.775Z,16.15
2022-10-18T03:10:02.548Z,16.17
2022-10-18T03:12:29.257Z,16.18
2022-10-18T03:14:55.972Z,16.15
2022-10-18T03:17:22.827Z,16.08
2022-10-18T03:19:49.494Z,16.05
2022-10-18T03:22:16.183Z,16.05
2022-10-18T03:24:42.981Z,16.09
2022-10-18T03:27:09.702Z,16.14
2022-10-18T03:29:36.355Z,16.17
2022-10-18T03:32:03.037Z,16.13
2022-10-18T03:34:29.696Z,16.14
2022-10-18T03:37:00.878Z,16.14
2022-10-18T03:39:30.132Z,16.11
2022-10-18T03:41:56.775Z,16.11
2022-10-18T03:44:23.433Z,16.11
2022-10-18T03:46:50.238Z,16.08
2022-10-18T03:49:16.968Z,16.03
2022-10-18T03:51:43.599Z,16.04
2022-10-18T03:54:10.197Z,16.09
2022-10-18T03:56:36.849Z,16.14
2022-10-18T03:59:04.481Z,16.08
2022-10-18T04:01:31.327Z,16.07
2022-10-18T04:03:58.075Z,16.08
2022-10-18T04:06:24.736Z,16.09
2022-10-18T04:08:51.373Z,16.05
2022-10-18T04:11:18.021Z,16.05
2022-10-18T04:13:44.734Z,16.06
2022-10-18T04:16:11.449Z,16.09
2022-10-18T04:18:38.201Z,16.12
2022-10-18T04:21:04.917Z,16.12
2022-10-18T04:23:33.862Z,16.14
2022-10-18T04:26:03.068Z,16.15
2022-10-18T04:28:29.762Z,16.17
2022-10-18T04:30:58.508Z,16.20
2022-10-18T04:33:25.704Z,16.14
2022-10-18T04:35:53.953Z,16.08
2022-10-18T04:38:20.788Z,16.07
2022-10-18T04:40:47.441Z,16.06
2022-10-18T04:43:14.162Z,16.05
2022-10-18T04:45:40.840Z,16.04
2022-10-18T04:48:07.612Z,16.05
2022-10-18T04:50:34.255Z,16.04
2022-10-18T04:53:00.872Z,16.12
2022-10-18T04:55:27.557Z,16.09
2022-10-18T04:57:54.208Z,16.09
2022-10-18T05:00:20.876Z,16.07
2022-10-18T05:02:47.517Z,16.06
2022-10-18T05:05:14.422Z,16.05
2022-10-18T05:07:41.471Z,16.02
2022-10-18T05:10:08.546Z,16.02
2022-10-18T05:12:35.315Z,16.04
2022-10-18T05:15:02.043Z,16.06
2022-10-18T05:17:28.792Z,16.09
2022-10-18T05:19:55.430Z,16.04
2022-10-18T05:22:22.166Z,16.00
2022-10-18T05:24:48.793Z,15.96
2022-10-18T05:27:15.474Z,15.93
2022-10-18T05:29:42.173Z,15.87
2022-10-18T05:32:08.856Z,15.86
2022-10-18T05:34:35.525Z,15.84
2022-10-18T05:37:02.162Z,15.87
2022-10-18T05:39:28.921Z,15.82
2022-10-18T05:41:55.761Z,15.81
2022-10-18T05:44:22.393Z,15.83
2022-10-18T05:46:49.030Z,15.80
2022-10-18T05:49:15.867Z,15.75
2022-10-18T05:51:42.552Z,15.80
2022-10-18T05:54:11.865Z,15.76
2022-10-18T05:59:12.187Z,15.79
2022-10-18T06:01:40.141Z,15.83
2022-10-18T06:04:06.820Z,15.82
2022-10-18T06:06:33.593Z,15.80
2022-10-18T06:09:00.294Z,15.82
2022-10-18T06:11:26.961Z,15.83
2022-10-18T06:13:53.616Z,15.82
2022-10-18T06:16:22.133Z,15.79
2022-10-18T06:18:53.092Z,15.81
2022-10-18T06:21:20.396Z,15.82
2022-10-18T06:23:50.873Z,15.80
2022-10-18T06:26:17.722Z,15.86
2022-10-18T06:28:44.471Z,15.88
2022-10-18T06:31:12.220Z,15.90
2022-10-18T06:33:38.869Z,15.91
2022-10-18T06:36:11.838Z,15.87
2022-10-18T06:38:38.401Z,15.66
2022-10-18T06:41:06.149Z,15.92
2022-10-18T06:43:32.956Z,15.96
2022-10-18T06:46:00.990Z,15.95
2022-10-18T06:48:27.619Z,15.94
2022-10-18T06:51:03.624Z,15.87
2022-10-18T06:53:32.453Z,15.93
2022-10-18T06:56:04.122Z,15.98
2022-10-18T06:58:30.948Z,16.00
2022-10-18T07:00:58.897Z,15.99
2022-10-18T07:03:26.266Z,15.98
2022-10-18T07:05:52.955Z,16.03
2022-10-18T07:08:19.680Z,15.99
2022-10-18T07:10:53.158Z,15.94
2022-10-18T07:13:31.911Z,16.01
2022-10-18T07:16:14.103Z,15.97
2022-10-18T07:18:49.596Z,15.98
2022-10-18T07:21:21.071Z,16.00
2022-10-18T07:23:48.333Z,16.02
2022-10-18T07:26:24.028Z,15.97
2022-10-18T07:28:55.175Z,16.04
2022-10-18T07:31:22.652Z,16.06
2022-10-18T07:33:49.308Z,16.10
2022-10-18T07:36:16.131Z,16.11
2022-10-18T07:38:42.895Z,16.15
2022-10-18T07:41:11.496Z,16.13
2022-10-18T07:43:41.564Z,16.13
2022-10-18T07:46:08.250Z,16.16
2022-10-18T07:48:34.978Z,16.17
2022-10-18T07:51:02.147Z,16.16
2022-10-18T07:53:29.298Z,16.16
2022-10-18T07:56:01.398Z,16.17
2022-10-18T07:58:31.646Z,16.20
2022-10-18T08:01:02.254Z,16.19
2022-10-18T08:03:28.959Z,16.19
2022-10-18T08:05:55.927Z,16.21
2022-10-18T08:08:23.397Z,16.21
2022-10-18T08:10:50.158Z,16.23
2022-10-18T08:13:17.137Z,16.23
2022-10-18T08:15:43.950Z,16.24
2022-10-18T08:18:11.525Z,16.30
2022-10-18T08:20:45.434Z,16.24
2022-10-18T08:23:12.222Z,16.27
2022-10-18T08:25:38.876Z,16.31
2022-10-18T08:28:06.038Z,16.30
2022-10-18T08:30:32.675Z,16.30
2022-10-18T08:32:59.312Z,16.30
2022-10-18T08:35:26.010Z,16.32
2022-10-18T08:37:52.691Z,16.30
2022-10-18T08:40:20.518Z,16.27
2022-10-18T08:42:57.898Z,16.22
2022-10-18T08:45:40.916Z,16.27
2022-10-18T08:48:18.852Z,16.19
2022-10-18T08:50:46.178Z,16.27
2022-10-18T08:53:56.814Z,16.17
2022-10-18T08:56:24.774Z,16.34
2022-10-18T08:58:51.677Z,16.38
2022-10-18T09:01:37.081Z,16.30
2022-10-18T09:04:03.675Z,16.40
2022-10-18T09:06:56.266Z,16.43
2022-10-18T09:09:41.132Z,16.42
2022-10-18T09:12:35.319Z,16.42
2022-10-18T09:15:35.429Z,16.45
2022-10-18T09:18:32.731Z,16.44
2022-10-18T09:21:01.182Z,16.58
2022-10-18T09:23:33.538Z,16.57
2022-10-18T09:26:18.835Z,16.58
2022-10-18T09:29:00.970Z,16.59
2022-10-18T09:31:50.215Z,16.55
2022-10-18T09:34:31.645Z,16.64
2022-10-18T09:36:59.149Z,16.76
2022-10-18T09:39:31.399Z,16.78
2022-10-18T09:42:03.809Z,16.82
2022-10-18T09:44:38.249Z,16.83
2022-10-18T09:47:21.885Z,16.79
2022-10-18T09:49:52.200Z,16.90
2022-10-18T09:52:23.546Z,16.93
2022-10-18T09:54:55.364Z,16.96
2022-10-18T09:57:35.624Z,17.01
2022-10-18T10:00:05.071Z,17.04
2022-10-18T10:02:31.921Z,17.09
2022-10-18T10:04:58.609Z,17.09
2022-10-18T10:07:35.060Z,17.09
2022-10-18T10:10:21.339Z,17.04
2022-10-18T10:12:49.089Z,17.13
2022-10-18T10:15:29.556Z,17.11
2022-10-18T10:18:18.007Z,17.17
2022-10-18T10:20:51.472Z,17.20
2022-10-18T10:23:37.435Z,17.18
2022-10-18T10:26:06.980Z,17.29
2022-10-18T10:28:37.227Z,17.31
2022-10-18T10:31:27.167Z,17.29
2022-10-18T10:34:13.921Z,17.32
2022-10-18T10:36:51.649Z,17.38
2022-10-18T10:39:19.941Z,17.48
2022-10-18T10:41:54.657Z,17.50
2022-10-18T10:44:23.300Z,17.60
2022-10-18T10:46:51.018Z,17.67
2022-10-18T10:52:26.972Z,17.71
2022-10-18T10:55:05.725Z,17.78
2022-10-18T10:57:32.732Z,17.84
2022-10-18T10:59:59.792Z,17.88
2022-10-18T11:02:31.787Z,17.88
2022-10-18T11:05:19.766Z,17.83
2022-10-18T11:07:46.705Z,17.96
2022-10-18T11:10:19.606Z,17.94
2022-10-18T11:12:46.767Z,17.84
2022-10-18T11:15:36.365Z,18.02
2022-10-18T11:18:25.772Z,18.07
2022-10-18T11:20:58.437Z,18.07
2022-10-18T11:23:30.523Z,18.05
2022-10-18T11:26:12.093Z,18.00
2022-10-18T11:29:15.254Z,17.96
2022-10-18T11:32:00.095Z,17.99
2022-10-18T11:34:26.981Z,18.07
2022-10-18T11:37:23.018Z,18.07
2022-10-18T11:39:58.351Z,18.07
2022-10-18T11:42:48.128Z,17.99
2022-10-18T11:45:32.040Z,18.00
2022-10-18T11:48:05.743Z,18.05
2022-10-18T11:50:48.378Z,18.01
2022-10-18T11:53:29.038Z,17.96
2022-10-18T11:56:13.565Z,18.01
2022-10-18T11:58:55.195Z,18.09
2022-10-18T12:01:49.917Z,18.13
2022-10-18T12:04:21.128Z,18.25
2022-10-18T12:06:51.071Z,18.32
2022-10-18T12:09:20.677Z,18.35
2022-10-18T12:11:55.795Z,18.36
2022-10-18T12:14:30.006Z,18.40
2022-10-18T12:17:27.979Z,18.46
2022-10-18T12:19:48.052Z,18.47
2022-10-18T12:22:23.200Z,18.44
2022-10-18T12:24:50.026Z,18.42
2022-10-18T12:27:17.225Z,18.39
2022-10-18T12:29:51.604Z,18.32
2022-10-18T12:32:22.446Z,18.35
2022-10-18T12:34:54.625Z,18.36
2022-10-18T12:37:36.724Z,18.35
2022-10-18T12:40:13.453Z,18.35
2022-10-18T12:42:45.978Z,18.36
2022-10-18T12:45:34.819Z,18.28
2022-10-18T12:48:08.382Z,18.33
2022-10-18T12:50:37.622Z,18.42
2022-10-18T12:53:10.342Z,18.44
2022-10-18T12:55:39.493Z,18.48
2022-10-18T12:58:30.340Z,18.37
2022-10-18T13:01:02.256Z,18.42
2022-10-18T13:03:38.869Z,18.39
2022-10-18T13:06:06.785Z,18.41
2022-10-18T13:08:43.137Z,18.33
2022-10-18T13:11:10.036Z,18.36
2022-10-18T13:13:54.961Z,18.28
2022-10-18T13:16:45.686Z,18.30
2022-10-18T13:19:28.591Z,18.26
2022-10-18T13:22:32.889Z,18.25
2022-10-18T13:25:25.585Z,18.26
2022-10-18T13:28:16.172Z,18.24
2022-10-18T13:30:58.771Z,18.29
2022-10-18T13:33:30.702Z,18.28
2022-10-18T13:35:59.507Z,18.30
2022-10-18T13:38:34.292Z,18.28
2022-10-18T13:41:16.961Z,18.22
2022-10-18T13:43:52.844Z,18.22
2022-10-18T13:46:20.412Z,18.27
2022-10-18T13:48:51.577Z,18.26
2022-10-18T13:51:38.700Z,18.18
2022-10-18T13:54:31.989Z,18.21
2022-10-18T13:57:17.351Z,18.06
2022-10-18T13:59:53.897Z,18.18
2022-10-18T14:02:51.558Z,18.13
2022-10-18T14:05:33.646Z,18.18
2022-10-18T14:08:08.160Z,18.20
2022-10-18T14:11:01.810Z,18.20
2022-10-18T14:13:39.629Z,18.20
2022-10-18T14:16:28.375Z,18.19
2022-10-18T14:19:01.559Z,18.20
2022-10-18T14:21:34.482Z,18.21
2022-10-18T14:24:00.974Z,18.03
2022-10-18T14:26:29.219Z,18.17
2022-10-18T14:29:06.459Z,18.13
2022-10-18T14:31:33.564Z,18.18
2022-10-18T14:34:01.008Z,18.20
2022-10-18T14:36:34.426Z,18.18
2022-10-18T14:39:04.264Z,18.19
2022-10-18T14:41:32.872Z,18.20
2022-10-18T14:44:14.665Z,18.12
2022-10-18T14:46:52.954Z,18.13
2022-10-18T14:49:20.345Z,18.21
2022-10-18T14:51:52.266Z,18.17
2022-10-18T14:54:31.840Z,18.15
2022-10-18T14:57:00.514Z,18.21
2022-10-18T14:59:28.994Z,18.22
2022-10-18T15:02:01.820Z,18.22
2022-10-18T15:04:32.765Z,18.05
2022-10-18T15:07:04.653Z,18.20
2022-10-18T15:09:34.593Z,18.20
2022-10-18T15:12:04.086Z,18.22
2022-10-18T15:14:30.937Z,18.22
2022-10-18T15:17:04.926Z,18.20
2022-10-18T15:19:34.402Z,18.22
2022-10-18T15:25:05.773Z,18.12
2022-10-18T15:27:36.281Z,18.17
2022-10-18T15:30:34.901Z,18.12
2022-10-18T15:33:03.840Z,18.16
2022-10-18T15:35:33.348Z,18.15
2022-10-18T15:38:03.514Z,18.14
2022-10-18T15:40:35.542Z,18.14
2022-10-18T15:43:06.221Z,18.12
2022-10-18T15:45:34.083Z,18.12
2022-10-18T15:48:02.090Z,18.11
2022-10-18T15:50:43.829Z,18.03
2022-10-18T15:53:22.768Z,18.04
2022-10-18T15:56:23.190Z,18.01
2022-10-18T15:58:51.250Z,18.08
2022-10-18T16:01:21.294Z,18.06
2022-10-18T16:03:48.735Z,18.07
2022-10-18T16:06:18.205Z,18.07
2022-10-18T16:08:47.926Z,18.07
2022-10-18T16:11:17.373Z,18.07
2022-10-18T16:13:44.538Z,18.06
2022-10-18T16:16:23.206Z,18.00
2022-10-18T16:18:50.270Z,18.05
2022-10-18T16:21:18.465Z,18.03
2022-10-18T16:23:45.615Z,18.02
2022-10-18T16:26:13.022Z,18.03
2022-10-18T16:28:40.022Z,18.01
2022-10-18T16:31:07.341Z,17.98
2022-10-18T16:33:35.686Z,17.98
2022-10-18T16:36:04.740Z,17.99
2022-10-18T16:38:36.873Z,17.95
2022-10-18T16:41:05.006Z,17.96
2022-10-18T16:43:32.326Z,17.95
2022-10-18T16:45:59.311Z,17.96
2022-10-18T16:48:26.162Z,17.92
2022-10-18T16:50:54.395Z,17.93
2022-10-18T16:53:25.054Z,17.93
2022-10-18T16:55:59.482Z,17.87
2022-10-18T16:58:27.468Z,17.90
2022-10-18T17:00:54.362Z,17.86
2022-10-18T17:03:21.588Z,17.84
2022-10-18T17:05:48.382Z,17.83
2022-10-18T17:08:19.307Z,17.85
2022-10-18T17:10:47.640Z,17.83
2022-10-18T17:13:14.615Z,17.83
2022-10-18T17:15:42.447Z,17.84
2022-10-18T17:18:15.469Z,17.79
2022-10-18T17:20:42.848Z,17.82
2022-10-18T17:23:09.964Z,17.82
2022-10-18T17:25:46.279Z,17.82
2022-10-18T17:28:24.614Z,17.79
2022-10-18T17:30:52.030Z,17.81
2022-10-18T17:33:18.770Z,17.80
2022-10-18T17:35:45.416Z,17.78
2022-10-18T17:38:12.333Z,17.79
2022-10-18T17:40:42.789Z,17.77
2022-10-18T17:43:10.286Z,17.77
2022-10-18T17:45:37.893Z,17.76
2022-10-18T17:48:04.729Z,17.74
2022-10-18T17:50:31.575Z,17.74
2022-10-18T17:52:58.470Z,17.72
2022-10-18T17:55:25.159Z,17.72
2022-10-18T17:57:51.794Z,17.70
2022-10-18T18:00:18.770Z,17.69
2022-10-18T18:02:46.582Z,17.68
2022-10-18T18:05:13.328Z,17.66
2022-10-18T18:07:40.166Z,17.65
2022-10-18T18:10:07.046Z,17.64
2022-10-18T18:12:33.898Z,17.62
2022-10-18T18:15:00.801Z,17.61
2022-10-18T18:17:34.043Z,17.63
2022-10-18T18:20:06.968Z,17.62
2022-10-18T18:22:35.267Z,17.61
2022-10-18T18:25:04.182Z,17.61
2022-10-18T18:27:31.120Z,17.60
2022-10-18T18:29:57.787Z,17.58
2022-10-18T18:32:24.460Z,17.59
2022-10-18T18:34:51.410Z,17.57
2022-10-18T18:37:18.102Z,17.58
2022-10-18T18:39:45.023Z,17.60
2022-10-18T18:42:11.956Z,17.63
2022-10-18T18:44:38.712Z,17.64
2022-10-18T18:47:10.843Z,17.67
2022-10-18T18:49:39.749Z,17.67
2022-10-18T18:52:06.939Z,17.65
2022-10-18T18:54:33.773Z,17.65
2022-10-18T18:57:05.105Z,17.62
2022-10-18T18:59:31.822Z,17.57
2022-10-18T19:01:58.631Z,17.59
2022-10-18T19:04:25.361Z,17.61
2022-10-18T19:06:52.130Z,17.62
2022-10-18T19:09:22.144Z,17.64
2022-10-18T19:11:50.753Z,17.62
2022-10-18T19:14:17.489Z,17.62
2022-10-18T19:16:53.266Z,17.61
2022-10-18T19:19:25.317Z,17.60
2022-10-18T19:21:54.458Z,17.60
2022-10-18T19:24:22.177Z,17.60
2022-10-18T19:26:54.154Z,17.61
2022-10-18T19:29:23.582Z,17.58
2022-10-18T19:31:51.765Z,17.57
2022-10-18T19:34:19.467Z,17.58
2022-10-18T19:36:47.494Z,17.56
2022-10-18T19:39:19.681Z,17.49
2022-10-18T19:41:50.836Z,17.51
2022-10-18T19:44:19.015Z,17.48
2022-10-18T19:46:46.246Z,17.48
2022-10-18T19:49:12.969Z,17.47
2022-10-18T19:51:39.692Z,17.45
2022-10-18T19:54:06.440Z,17.44
2022-10-18T19:56:33.206Z,17.44
2022-10-18T19:59:00.481Z,17.42
2022-10-18T20:01:28.503Z,17.39
2022-10-18T20:03:55.285Z,17.36
2022-10-18T20:06:22.410Z,17.37
2022-10-18T20:08:49.548Z,17.35
2022-10-18T20:11:22.438Z,17.35
2022-10-18T20:13:49.050Z,17.07
2022-10-18T20:16:17.580Z,17.25
2022-10-18T20:18:44.581Z,17.30
2022-10-18T20:21:13.546Z,17.30
2022-10-18T20:23:41.454Z,17.33
2022-10-18T20:26:11.149Z,17.33
2022-10-18T20:28:38.704Z,17.34
2022-10-18T20:31:07.970Z,17.39
2022-10-18T20:33:35.846Z,17.39
2022-10-18T20:36:10.713Z,17.34
2022-10-18T20:38:39.022Z,17.35
2022-10-18T20:41:21.050Z,17.20
2022-10-18T20:43:52.587Z,17.26
2022-10-18T20:46:19.690Z,17.29
2022-10-18T20:48:46.558Z,17.27
2022-10-18T20:51:13.486Z,17.21
2022-10-18T20:53:40.815Z,17.23
2022-10-18T20:56:15.418Z,17.13
2022-10-18T20:58:43.822Z,17.16
2022-10-18T21:01:17.310Z,17.15
2022-10-18T21:03:45.275Z,17.12
2022-10-18T21:06:19.800Z,17.13
2022-10-18T21:08:47.106Z,17.09
2022-10-18T21:11:14.939Z,17.08
2022-10-18T21:13:41.578Z,17.09
2022-10-18T21:16:08.647Z,17.06
2022-10-18T21:18:36.371Z,17.07
2022-10-18T21:21:18.326Z,16.92
2022-10-18T21:23:45.402Z,17.05
2022-10-18T21:26:15.255Z,17.05
2022-10-18T21:28:42.144Z,17.04
2022-10-18T21:31:10.697Z,17.03
2022-10-18T21:33:37.392Z,17.04
2022-10-18T21:36:04.253Z,17.06
2022-10-18T21:38:30.991Z,17.03
2022-10-18T21:40:57.729Z,17.04
2022-10-18T21:43:24.355Z,16.98
2022-10-18T21:45:57.911Z,16.91
2022-10-18T21:48:24.581Z,16.96
2022-10-18T21:50:51.231Z,16.95
2022-10-18T21:53:18.073Z,16.95
2022-10-18T21:55:44.832Z,16.95
2022-10-18T21:58:11.544Z,16.95
2022-10-18T22:00:39.086Z,16.98
2022-10-18T22:03:14.925Z,16.89
2022-10-18T22:05:41.678Z,16.97
2022-10-18T22:08:08.379Z,16.98
2022-10-18T22:10:35.007Z,16.98
2022-10-18T22:13:01.714Z,16.98
2022-10-18T22:15:28.488Z,17.00
2022-10-18T22:17:55.164Z,16.96
2022-10-18T22:20:22.059Z,16.98
2022-10-18T22:22:48.755Z,17.01
2022-10-18T22:25:15.577Z,16.98
2022-10-18T22:27:42.237Z,16.95
2022-10-18T22:30:09.609Z,16.95
2022-10-18T22:32:36.371Z,16.91
2022-10-18T22:35:03.070Z,16.93
2022-10-18T22:37:29.867Z,16.91
2022-10-18T22:39:56.600Z,16.85
2022-10-18T22:42:23.361Z,16.85
2022-10-18T22:44:50.079Z,16.80
2022-10-18T22:47:16.722Z,16.79
2022-10-18T22:49:43.521Z,16.81
2022-10-18T22:52:10.168Z,16.81
2022-10-18T22:54:36.895Z,16.82
2022-10-18T22:57:04.716Z,16.85
2022-10-18T22:59:31.431Z,16.84
2022-10-18T23:01:58.069Z,16.83
2022-10-18T23:04:24.736Z,16.83
2022-10-18T23:06:51.526Z,16.82
2022-10-18T23:09:18.192Z,16.78
2022-10-18T23:11:44.900Z,16.78
2022-10-18T23:14:11.662Z,16.77
2022-10-18T23:16:38.309Z,16.78
2022-10-18T23:19:05.134Z,16.71
2022-10-18T23:21:33.428Z,16.75
2022-10-18T23:24:00.177Z,16.74
2022-10-18T23:26:27.719Z,16.69
2022-10-18T23:28:55.024Z,16.65
2022-10-18T23:31:24.910Z,16.67
2022-10-18T23:33:53.938Z,16.63
2022-10-18T23:36:21.851Z,16.65
2022-10-18T23:38:48.654Z,16.60
2022-10-18T23:41:15.984Z,16.60
2022-10-18T23:43:43.313Z,16.64
2022-10-18T23:46:10.637Z,16.58
2022-10-18T23:48:37.347Z,16.53
2022-10-18T23:51:04.386Z,16.50
2022-10-18T23:53:31.619Z,16.50
2022-10-18T23:56:00.672Z,16.41
2022-10-18T23:58:28.598Z,16.38
